VJT85 KATL-KGSO
Flight info
| Callsign | VJT85 |
|---|---|
| Flight time | N/A |
| Altitude | 39000 |
| Route | PLMMR3 PLMMR BURGG TRAKS4 |
| Aircraft | CL60/M-SADE3FGHIJ3J4J7P2RWXY/HB1D1 |
Departure
| Time | N/A |
|---|---|
| Airport | Hartsfield Jackson Atlanta International Airport (KATL) |
Arrival
| Time | 2026-05-04 12:22 |
|---|---|
| Airport | Piedmont Triad International Airport (KGSO) |
| Time | Latitude | Longitude | Altitude | Speed | Heading |
|---|---|---|---|---|---|
| 2026-05-04 12:17 | 36.23843 | -79.78096 | 3091 ft | 175 kts | 228° |
| 2026-05-04 12:17 | 36.23009 | -79.79166 | 3079 ft | 167 kts | 229° |
| 2026-05-04 12:17 | 36.22210 | -79.80190 | 3083 ft | 160 kts | 229° |
| 2026-05-04 12:17 | 36.21450 | -79.81165 | 3097 ft | 156 kts | 229° |
| 2026-05-04 12:18 | 36.20699 | -79.82128 | 3096 ft | 151 kts | 229° |
| 2026-05-04 12:18 | 36.19982 | -79.83046 | 3046 ft | 146 kts | 229° |
| 2026-05-04 12:18 | 36.19276 | -79.83951 | 3019 ft | 145 kts | 229° |
| 2026-05-04 12:18 | 36.18602 | -79.84814 | 2852 ft | 136 kts | 229° |
| 2026-05-04 12:19 | 36.17971 | -79.85619 | 2680 ft | 125 kts | 229° |
| 2026-05-04 12:19 | 36.17378 | -79.86378 | 2504 ft | 120 kts | 228° |
| 2026-05-04 12:19 | 36.16796 | -79.87122 | 2320 ft | 119 kts | 229° |
| 2026-05-04 12:19 | 36.16225 | -79.87852 | 2169 ft | 118 kts | 228° |
| 2026-05-04 12:20 | 36.15654 | -79.88583 | 2031 ft | 118 kts | 227° |
| 2026-05-04 12:20 | 36.15083 | -79.89311 | 1877 ft | 118 kts | 227° |
| 2026-05-04 12:20 | 36.14507 | -79.90044 | 1718 ft | 118 kts | 226° |
| 2026-05-04 12:20 | 36.13934 | -79.90782 | 1543 ft | 118 kts | 226° |
| 2026-05-04 12:21 | 36.13366 | -79.91507 | 1396 ft | 119 kts | 226° |
| 2026-05-04 12:21 | 36.12785 | -79.92252 | 1227 ft | 120 kts | 227° |
| 2026-05-04 12:21 | 36.12199 | -79.92999 | 1062 ft | 121 kts | 226° |
| 2026-05-04 12:21 | 36.11617 | -79.93743 | 901 ft | 121 kts | 226° |
| 2026-05-04 12:22 | 36.11055 | -79.94447 | 856 ft | 100 kts | 225° |
| 2026-05-04 12:22 | 36.10650 | -79.94979 | 869 ft | 70 kts | 226° |
| 2026-05-04 12:22 | 36.10481 | -79.95200 | 878 ft | 22 kts | 224° |
| 2026-05-04 12:22 | 36.10349 | -79.95261 | 883 ft | 9 kts | 193° |
| 2026-05-04 12:23 | 36.10276 | -79.95282 | 886 ft | 11 kts | 191° |
| 2026-05-04 12:23 | 36.10219 | -79.95269 | 887 ft | 5 kts | 130° |
| 2026-05-04 12:23 | 36.10185 | -79.95221 | 887 ft | 9 kts | 131° |
| 2026-05-04 12:23 | 36.10131 | -79.95154 | 889 ft | 12 kts | 139° |
| 2026-05-04 12:24 | 36.10059 | -79.95072 | 890 ft | 15 kts | 139° |
| 2026-05-04 12:24 | 36.09978 | -79.94971 | 893 ft | 17 kts | 133° |
| 2026-05-04 12:24 | 36.09895 | -79.94867 | 896 ft | 5 kts | 138° |
| 2026-05-04 12:24 | 36.09869 | -79.94820 | 896 ft | 7 kts | 92° |
| 2026-05-04 12:25 | 36.09897 | -79.94752 | 896 ft | 11 kts | 42° |
| 2026-05-04 12:25 | 36.09931 | -79.94682 | 894 ft | 10 kts | 110° |
| 2026-05-04 12:25 | 36.09894 | -79.94622 | 896 ft | 3 kts | 120° |
| 2026-05-04 12:25 | 36.09894 | -79.94607 | 896 ft | 0 kts | 57° |